createdAt,value
2018-11-23T00:03:34.789Z,82.97
2018-11-23T00:07:42.805Z,77.33
2018-11-23T00:11:49.969Z,74.67
2018-11-23T00:15:56.434Z,81.47
2018-11-23T00:20:03.090Z,82.87
2018-11-23T00:24:09.639Z,88.23
2018-11-23T00:28:16.995Z,85.17
2018-11-23T00:32:23.958Z,91.47
2018-11-23T00:36:30.503Z,85.07
2018-11-23T00:40:36.948Z,89.87
2018-11-23T00:44:43.887Z,87.73
2018-11-23T00:48:50.422Z,89.47
2018-11-23T00:52:57.994Z,91.40
2018-11-23T00:57:04.476Z,86.07
2018-11-23T01:01:12.218Z,91.23
2018-11-23T01:05:19.707Z,64.53
2018-11-23T01:09:26.468Z,93.87
2018-11-23T01:13:32.836Z,89.03
2018-11-23T01:17:40.392Z,95.57
2018-11-23T01:21:49.457Z,93.17
2018-11-23T01:25:56.057Z,84.23
2018-11-23T01:30:02.895Z,97.00
2018-11-23T01:34:10.655Z,88.73
2018-11-23T01:38:17.150Z,92.60
2018-11-23T01:42:25.912Z,82.60
2018-11-23T01:46:32.407Z,83.00
2018-11-23T01:50:40.431Z,94.20
2018-11-23T01:54:47.915Z,91.60
2018-11-23T01:58:56.050Z,87.63
2018-11-23T02:03:02.862Z,94.73
2018-11-23T02:07:11.197Z,83.00
2018-11-23T02:11:17.653Z,80.40
2018-11-23T02:15:24.294Z,87.00
2018-11-23T02:19:30.832Z,82.03
2018-11-23T02:23:38.220Z,85.40
2018-11-23T02:27:44.629Z,88.77
2018-11-23T02:31:51.371Z,79.03
2018-11-23T02:35:58.065Z,80.57
2018-11-23T02:40:04.746Z,87.33
2018-11-23T02:44:11.235Z,87.70
2018-11-23T02:48:17.718Z,81.73
2018-11-23T02:52:25.850Z,92.53
2018-11-23T02:56:52.381Z,77.13
2018-11-23T03:01:00.355Z,84.87
2018-11-23T03:05:08.431Z,77.53
2018-11-23T03:09:15.512Z,78.67
2018-11-23T03:13:22.398Z,82.07
2018-11-23T03:17:29.657Z,78.57
2018-11-23T03:21:36.235Z,88.43
2018-11-23T03:25:42.684Z,84.00
2018-11-23T03:29:49.834Z,90.67
2018-11-23T03:33:56.804Z,94.33
2018-11-23T03:38:04.201Z,87.53
2018-11-23T03:42:13.065Z,92.77
2018-11-23T03:46:21.291Z,82.87
2018-11-23T03:50:28.585Z,85.97
2018-11-23T03:54:35.097Z,87.93
2018-11-23T03:58:42.340Z,87.07
2018-11-23T04:02:49.693Z,90.70
2018-11-23T04:06:58.917Z,77.27
2018-11-23T04:11:07.389Z,81.93
2018-11-23T04:15:14.208Z,92.77
2018-11-23T04:19:21.884Z,81.43
2018-11-23T04:23:28.413Z,78.93
2018-11-23T04:27:34.928Z,83.47
2018-11-23T04:31:41.384Z,85.80
2018-11-23T04:35:49.779Z,95.73
2018-11-23T04:39:56.212Z,107.00
2018-11-23T04:44:02.974Z,95.63
2018-11-23T04:48:11.685Z,100.10
2018-11-23T04:52:18.751Z,99.10
2018-11-23T04:56:25.974Z,98.63
2018-11-23T05:00:32.524Z,99.63
2018-11-23T05:04:38.945Z,103.93
2018-11-23T05:08:46.645Z,91.03
2018-11-23T05:12:53.161Z,86.10
2018-11-23T05:17:01.656Z,91.83
2018-11-23T05:21:08.545Z,103.00
2018-11-23T05:25:17.759Z,107.83
2018-11-23T05:29:24.219Z,93.37
2018-11-23T05:33:30.739Z,93.23
2018-11-23T05:37:37.396Z,100.57
2018-11-23T05:41:44.489Z,95.27
2018-11-23T05:45:50.951Z,103.80
2018-11-23T05:49:57.634Z,87.97
2018-11-23T05:54:04.171Z,94.77
2018-11-23T05:58:12.639Z,94.03
2018-11-23T06:02:19.090Z,92.70
2018-11-23T06:06:25.982Z,90.33
2018-11-23T06:10:32.454Z,97.30
2018-11-23T06:14:40.436Z,87.00
2018-11-23T06:18:46.945Z,74.17
2018-11-23T06:22:55.095Z,89.30
2018-11-23T06:27:03.946Z,97.23
2018-11-23T06:31:11.003Z,99.90
2018-11-23T06:35:17.481Z,94.53
2018-11-23T06:39:24.191Z,88.17
2018-11-23T06:43:32.642Z,67.07
2018-11-23T06:47:39.721Z,54.63
2018-11-23T06:51:46.398Z,81.10
2018-11-23T06:55:53.178Z,72.40
2018-11-23T06:59:59.674Z,80.87
2018-11-23T07:04:07.234Z,74.57
2018-11-23T07:08:14.567Z,89.73
2018-11-23T07:12:21.075Z,74.80
2018-11-23T07:16:27.831Z,80.83
2018-11-23T07:20:35.178Z,75.00
2018-11-23T07:24:42.873Z,81.93
2018-11-23T07:28:50.221Z,73.40
2018-11-23T07:32:56.811Z,71.30
2018-11-23T07:37:03.873Z,66.60
2018-11-23T07:41:48.893Z,61.07
2018-11-23T07:45:56.341Z,65.90
2018-11-23T07:50:02.919Z,62.63
2018-11-23T07:54:10.027Z,67.23
2018-11-23T07:58:16.404Z,77.10
2018-11-23T08:02:22.928Z,86.67
2018-11-23T08:06:29.414Z,72.83
2018-11-23T08:10:35.224Z,65.47
2018-11-23T08:14:41.695Z,69.57
2018-11-23T08:18:48.256Z,73.40
2018-11-23T08:22:54.753Z,62.53
2018-11-23T08:27:02.678Z,54.07
2018-11-23T08:31:09.519Z,66.30
2018-11-23T08:35:16.469Z,58.30
2018-11-23T08:39:23.204Z,63.83
2018-11-23T08:43:30.623Z,68.50
2018-11-23T08:47:37.112Z,64.20
2018-11-23T08:51:43.635Z,65.23
2018-11-23T08:55:50.096Z,54.10
2018-11-23T08:59:57.947Z,72.57
2018-11-23T09:04:04.744Z,65.40
2018-11-23T09:08:11.294Z,62.77
2018-11-23T09:12:17.763Z,66.97
2018-11-23T09:16:24.371Z,70.27
2018-11-23T09:20:30.831Z,66.50
2018-11-23T09:24:37.360Z,66.53
2018-11-23T09:28:43.811Z,67.43
2018-11-23T09:32:53.110Z,62.70
2018-11-23T09:36:59.454Z,69.90
2018-11-23T09:41:06.683Z,54.00
2018-11-23T09:45:15.616Z,62.13
2018-11-23T09:49:22.890Z,61.23
2018-11-23T09:53:29.359Z,62.00
2018-11-23T09:57:35.973Z,66.77
2018-11-23T10:01:42.414Z,74.43
2018-11-23T10:05:49.503Z,68.80
2018-11-23T10:09:55.946Z,62.27
2018-11-23T10:14:05.654Z,57.60
2018-11-23T10:18:12.108Z,62.23
2018-11-23T10:26:55.800Z,60.37
2018-11-23T10:31:02.796Z,61.90
2018-11-23T10:35:10.374Z,68.37
2018-11-23T10:39:18.044Z,59.93
2018-11-23T10:43:24.625Z,68.73
2018-11-23T10:47:31.149Z,63.73
2018-11-23T10:51:37.939Z,65.60
2018-11-23T10:55:44.533Z,67.20
2018-11-23T10:59:53.159Z,65.40
2018-11-23T11:04:18.319Z,63.07
2018-11-23T11:08:24.980Z,55.70
2018-11-23T11:12:31.775Z,63.00
2018-11-23T11:16:38.742Z,64.07
2018-11-23T11:21:06.438Z,60.03
2018-11-23T11:25:13.567Z,55.33
2018-11-23T11:29:21.384Z,66.37
2018-11-23T11:33:29.880Z,64.07
2018-11-23T11:37:36.458Z,62.33
2018-11-23T11:41:43.015Z,62.60
2018-11-23T11:45:49.532Z,54.27
2018-11-23T11:49:59.214Z,66.77
2018-11-23T11:54:05.978Z,63.63
2018-11-23T11:58:12.691Z,60.33
2018-11-23T12:02:19.217Z,66.77
2018-11-23T12:06:26.644Z,60.60
2018-11-23T12:10:33.141Z,74.63
2018-11-23T12:14:39.690Z,72.03
2018-11-23T12:18:47.935Z,60.23
2018-11-23T12:22:54.603Z,61.70
2018-11-23T12:27:01.787Z,65.57
2018-11-23T12:31:10.571Z,77.47
2018-11-23T12:35:18.041Z,76.70
2018-11-23T12:39:26.531Z,79.30
2018-11-23T12:43:33.447Z,110.27
2018-11-23T12:47:41.420Z,87.83
2018-11-23T12:51:48.122Z,72.27
2018-11-23T12:55:54.682Z,75.20
2018-11-23T13:00:01.871Z,74.37
2018-11-23T13:04:07.570Z,82.30
2018-11-23T13:08:14.678Z,86.53
2018-11-23T13:12:23.259Z,80.83
2018-11-23T13:16:29.874Z,69.87
2018-11-23T13:20:36.463Z,85.77
2018-11-23T13:24:43.074Z,79.70
2018-11-23T13:32:57.684Z,74.87
2018-11-23T13:37:05.101Z,80.90
2018-11-23T13:41:13.256Z,58.53
2018-11-23T13:45:21.852Z,76.60
2018-11-23T13:49:28.767Z,79.50
2018-11-23T13:53:35.283Z,66.30
2018-11-23T13:57:42.838Z,82.67
2018-11-23T14:01:50.884Z,82.27
2018-11-23T14:05:57.530Z,92.47
2018-11-23T14:10:04.332Z,82.37
2018-11-23T14:14:11.908Z,85.53
2018-11-23T14:18:18.863Z,66.97
2018-11-23T14:22:45.964Z,84.33
2018-11-23T14:26:53.004Z,91.10
2018-11-23T14:31:00.466Z,96.83
2018-11-23T14:35:08.412Z,100.63
2018-11-23T14:39:15.041Z,113.10
2018-11-23T14:43:22.389Z,122.17
2018-11-23T14:47:29.388Z,124.87
2018-11-23T14:51:36.064Z,108.67
2018-11-23T14:55:42.704Z,123.47
2018-11-23T14:59:48.786Z,100.30
2018-11-23T15:03:55.576Z,122.27
2018-11-23T15:12:12.628Z,107.20
2018-11-23T15:16:19.500Z,99.93
2018-11-23T15:20:29.601Z,116.10
2018-11-23T15:24:36.964Z,112.43
2018-11-23T15:28:43.588Z,112.70
2018-11-23T15:32:55.182Z,119.10
2018-11-23T15:37:01.970Z,110.23
2018-11-23T15:41:09.823Z,106.20
2018-11-23T15:45:20.900Z,140.60
2018-11-23T15:49:28.872Z,150.17
2018-11-23T15:53:37.382Z,157.47
2018-11-23T15:57:46.061Z,167.33
2018-11-23T16:01:56.140Z,154.47
2018-11-23T16:06:02.777Z,144.93
2018-11-23T16:10:15.941Z,155.30
2018-11-23T16:14:24.516Z,128.13
2018-11-23T16:18:32.664Z,154.23
2018-11-23T16:22:39.261Z,158.13
2018-11-23T16:26:46.092Z,181.40
2018-11-23T16:30:57.060Z,144.43
2018-11-23T16:35:04.336Z,207.57
2018-11-23T16:39:12.798Z,175.97
2018-11-23T16:43:20.111Z,168.60
2018-11-23T16:47:27.528Z,168.37
2018-11-23T16:51:34.352Z,172.93
2018-11-23T16:55:40.890Z,184.77
2018-11-23T16:59:47.756Z,151.03
2018-11-23T17:08:04.299Z,146.30
2018-11-23T17:12:12.722Z,144.77
2018-11-23T17:16:19.602Z,113.50
2018-11-23T17:20:33.823Z,142.73
2018-11-23T17:24:40.786Z,137.67
2018-11-23T17:28:47.455Z,164.63
2018-11-23T17:32:55.084Z,170.43
2018-11-23T17:37:03.226Z,164.70
2018-11-23T17:41:09.953Z,187.63
2018-11-23T17:45:23.205Z,171.53
2018-11-23T17:49:30.071Z,169.13
2018-11-23T17:53:37.435Z,156.90
2018-11-23T17:57:44.825Z,171.03
2018-11-23T18:01:51.740Z,178.00
2018-11-23T18:05:58.511Z,194.07
2018-11-23T18:10:05.980Z,187.90
2018-11-23T18:14:15.049Z,190.03
2018-11-23T18:18:21.542Z,107.57
2018-11-23T18:22:28.362Z,158.70
2018-11-23T18:26:37.131Z,159.17
2018-11-23T18:34:53.959Z,177.77
2018-11-23T18:39:01.829Z,193.80
2018-11-23T18:43:10.006Z,238.63
2018-11-23T18:47:17.564Z,213.17
2018-11-23T18:51:24.486Z,209.07
2018-11-23T18:55:33.039Z,182.70
2018-11-23T18:59:40.259Z,146.77
2018-11-23T19:03:47.846Z,162.77
2018-11-23T19:12:03.186Z,148.07
2018-11-23T19:16:10.826Z,171.67
2018-11-23T19:20:36.206Z,161.30
2018-11-23T19:24:43.049Z,152.07
2018-11-23T19:28:49.502Z,156.93
2018-11-23T19:32:57.002Z,165.13
2018-11-23T19:37:03.504Z,170.43
2018-11-23T19:41:35.245Z,192.30
2018-11-23T19:45:42.676Z,194.53
2018-11-23T19:49:52.330Z,228.27
2018-11-23T19:53:58.982Z,190.33
2018-11-23T20:02:13.811Z,181.60
2018-11-23T20:06:21.031Z,184.77
2018-11-23T20:10:28.778Z,171.00
2018-11-23T20:14:35.408Z,176.43
2018-11-23T20:18:41.896Z,173.90
2018-11-23T20:22:51.537Z,171.17
2018-11-23T20:26:57.984Z,164.37
2018-11-23T20:31:06.773Z,145.37
2018-11-23T20:35:17.226Z,159.93
2018-11-23T20:39:25.169Z,161.73
2018-11-23T20:43:34.385Z,147.47
2018-11-23T20:47:41.337Z,167.13
2018-11-23T20:51:49.254Z,170.20
2018-11-23T20:55:57.837Z,156.40
2018-11-23T21:00:03.546Z,162.80
2018-11-23T21:04:13.890Z,163.17
2018-11-23T21:08:22.629Z,167.83
2018-11-23T21:12:28.552Z,164.93
2018-11-23T21:16:35.144Z,190.00
2018-11-23T21:20:43.505Z,159.20
2018-11-23T21:24:50.180Z,168.83
2018-11-23T21:28:56.928Z,187.67
2018-11-23T21:33:03.705Z,188.53
2018-11-23T21:37:10.423Z,163.43
2018-11-23T21:41:16.938Z,197.50
2018-11-23T21:45:25.085Z,166.70
2018-11-23T21:49:35.931Z,189.20
2018-11-23T21:53:42.643Z,210.30
2018-11-23T21:57:49.193Z,170.77
2018-11-23T22:02:17.728Z,164.20
2018-11-23T22:06:25.598Z,169.40
2018-11-23T22:10:32.987Z,177.37
2018-11-23T22:14:39.507Z,175.90
2018-11-23T22:18:47.235Z,165.67
2018-11-23T22:22:53.848Z,178.07
2018-11-23T22:27:00.683Z,154.10
2018-11-23T22:31:07.638Z,178.00
2018-11-23T22:35:14.747Z,180.23
2018-11-23T22:39:22.961Z,139.27
2018-11-23T22:43:31.437Z,195.03
2018-11-23T22:47:39.561Z,163.53
2018-11-23T22:51:47.795Z,137.53
2018-11-23T22:55:56.370Z,153.97
2018-11-23T23:00:01.816Z,140.80
2018-11-23T23:04:09.255Z,131.80
2018-11-23T23:08:37.415Z,142.00
2018-11-23T23:12:43.921Z,150.40
2018-11-23T23:16:53.545Z,144.03
2018-11-23T23:21:01.454Z,137.33
2018-11-23T23:25:09.402Z,144.73
2018-11-23T23:29:16.030Z,168.03
2018-11-23T23:33:23.543Z,145.50
2018-11-23T23:37:30.167Z,161.77
2018-11-23T23:41:37.836Z,128.93
2018-11-23T23:45:44.311Z,157.00
2018-11-23T23:49:52.291Z,174.00
2018-11-23T23:53:59.271Z,191.13
2018-11-23T23:58:07.493Z,137.87
